Time;durP1;ratioP1;P1;durP2;ratioP2;P2;SDS_P1;SDS_P2;PMS_P1;PMS_P2;Temp;Humidity;BMP_temperature;BMP_pressure;BME280_temperature;BME280_humidity;BME280_pressure;Samples;Min_cycle;Max_cycle;Signal;HPM_P1;HPM_P2
2023/12/21 00:00:55;;;;;;;17.77;6.07;;;;;;;3.36;75.40;100565.59;5083719;28;20059;-83
2023/12/21 00:03:47;;;;;;;13.13;7.18;;;;;;;3.50;75.63;100563.19;5088641;28;20044;-83
2023/12/21 00:06:42;;;;;;;14.30;7.63;;;;;;;3.43;76.32;100552.72;5089591;28;20044;-83
2023/12/21 00:09:34;;;;;;;13.45;5.85;;;;;;;3.43;75.29;100558.09;5093716;28;20039;-83
2023/12/21 00:12:26;;;;;;;15.15;9.07;;;;;;;3.52;76.54;100544.88;5091785;28;20060;-83
2023/12/21 00:15:21;;;;;;;12.07;7.93;;;;;;;3.53;76.08;100545.69;5090078;28;20059;-83
2023/12/21 00:18:16;;;;;;;9.23;5.13;;;;;;;3.60;78.76;100540.84;5094195;28;20056;-83
2023/12/21 00:21:11;;;;;;;9.70;6.07;;;;;;;3.67;79.78;100539.47;5091472;28;20051;-83
2023/12/21 00:24:03;;;;;;;14.93;7.38;;;;;;;3.62;79.33;100539.47;5093454;28;20292;-83
2023/12/21 00:26:58;;;;;;;14.23;7.90;;;;;;;3.74;79.98;100541.88;5093360;28;20040;-82
2023/12/21 00:29:52;;;;;;;14.60;8.48;;;;;;;3.94;82.23;100539.09;5089665;28;20048;-83
2023/12/21 00:32:47;;;;;;;15.03;6.03;;;;;;;4.00;82.38;100545.28;5094219;28;20425;-83
2023/12/21 00:35:37;;;;;;;14.30;8.45;;;;;;;4.06;82.72;100549.56;5090893;28;20043;-83
2023/12/21 00:38:31;;;;;;;18.17;8.75;;;;;;;4.04;82.69;100557.09;5095383;28;20047;-83
2023/12/21 00:41:26;;;;;;;15.70;8.02;;;;;;;3.77;81.26;100557.44;5091938;28;20047;-83
2023/12/21 00:44:18;;;;;;;13.25;6.82;;;;;;;3.63;81.97;100561.81;5089943;28;20055;-83
2023/12/21 00:47:08;;;;;;;13.85;7.90;;;;;;;3.80;84.05;100562.31;5093501;28;20048;-83
2023/12/21 00:49:55;;;;;;;20.63;9.60;;;;;;;3.87;84.44;100568.16;5091807;28;20059;-83
2023/12/21 00:52:47;;;;;;;22.33;9.77;;;;;;;3.83;84.73;100575.19;5089335;28;20052;-83
2023/12/21 00:55:39;;;;;;;11.05;6.22;;;;;;;3.80;85.71;100570.38;5094011;28;20055;-83
2023/12/21 00:58:34;;;;;;;16.45;9.18;;;;;;;3.57;84.07;100565.56;5091371;28;20047;-82
2023/12/21 01:01:29;;;;;;;14.05;8.25;;;;;;;3.42;84.70;100561.84;5089724;28;20043;-83
2023/12/21 01:04:18;;;;;;;22.98;9.65;;;;;;;3.55;86.44;100557.81;5092077;28;20056;-83
2023/12/21 01:07:13;;;;;;;16.67;9.40;;;;;;;3.41;87.88;100554.03;5089504;28;20044;-83
2023/12/21 01:10:05;;;;;;;17.37;9.93;;;;;;;3.44;89.17;100553.50;5091966;28;20052;-83
2023/12/21 01:12:58;;;;;;;17.30;10.32;;;;;;;3.56;89.54;100553.19;5090783;28;20817;-83
2023/12/21 01:15:54;;;;;;;18.77;11.18;;;;;;;3.61;89.56;100553.19;5087404;28;20044;-83
2023/12/21 01:18:47;;;;;;;16.15;8.63;;;;;;;3.66;89.30;100564.75;5092462;28;20115;-83
2023/12/21 01:21:44;;;;;;;17.33;10.52;;;;;;;3.66;88.48;100558.56;5090757;28;20056;-83
2023/12/21 01:24:34;;;;;;;14.02;7.53;;;;;;;3.54;86.36;100563.44;5090916;28;20052;-83
2023/12/21 01:27:28;;;;;;;15.05;9.02;;;;;;;3.41;85.19;100562.91;5091537;28;20048;-83
2023/12/21 01:30:21;;;;;;;11.63;6.90;;;;;;;3.43;83.90;100560.78;5089236;28;20047;-82
2023/12/21 01:33:15;;;;;;;34.90;9.90;;;;;;;3.37;84.13;100567.22;5092501;28;20043;-83
2023/12/21 01:36:11;;;;;;;11.47;6.40;;;;;;;3.37;83.41;100553.78;5090241;28;20047;-83
2023/12/21 01:39:03;;;;;;;;;;;;;;;3.44;82.97;100554.31;5094279;28;20408;-82
2023/12/21 01:41:55;;;;;;;15.45;8.10;;;;;;;3.61;84.10;100559.38;5091631;28;19912;-83
2023/12/21 01:44:45;;;;;;;19.40;10.57;;;;;;;3.63;84.73;100561.81;5088104;28;20052;-83
2023/12/21 01:47:38;;;;;;;12.65;7.85;;;;;;;3.34;80.90;100558.91;5092959;28;20051;-82
2023/12/21 01:50:31;;;;;;;12.27;7.93;;;;;;;2.94;82.50;100555.19;5091580;28;20051;-83
2023/12/21 01:53:25;;;;;;;13.25;7.32;;;;;;;2.89;82.86;100557.06;5088475;28;20043;-82
2023/12/21 01:56:20;;;;;;;20.25;8.27;;;;;;;2.82;83.38;100551.13;5091660;28;20051;-82
2023/12/21 01:59:14;;;;;;;14.45;8.20;;;;;;;2.82;83.38;100545.75;5088895;28;20044;-83
2023/12/21 02:02:06;;;;;;;17.08;8.63;;;;;;;2.72;83.84;100543.88;5086768;28;20047;-82
2023/12/21 02:05:02;;;;;;;13.32;7.30;;;;;;;2.91;82.62;100538.78;5087755;28;20047;-83
2023/12/21 02:07:55;;;;;;;15.07;7.25;;;;;;;2.73;81.73;100542.00;5088193;28;20497;-83
2023/12/21 02:10:50;;;;;;;13.63;7.07;;;;;;;2.70;84.42;100534.47;5088502;28;20047;-83
2023/12/21 02:13:44;;;;;;;12.75;7.10;;;;;;;2.84;85.61;100541.75;5089187;28;20539;-83
2023/12/21 02:16:43;;;;;;;19.00;8.25;;;;;;;2.78;85.46;100542.00;5092396;28;20040;-83
2023/12/21 02:19:35;;;;;;;16.80;8.18;;;;;;;2.84;85.05;100547.13;5090206;28;20056;-82
2023/12/21 02:22:29;;;;;;;19.60;7.32;;;;;;;2.81;82.77;100550.31;5087342;28;20044;-83
2023/12/21 02:25:23;;;;;;;12.15;7.22;;;;;;;2.91;82.23;100539.59;5086126;28;20063;-83
2023/12/21 02:28:16;;;;;;;11.50;5.43;;;;;;;2.93;80.00;100529.41;5088114;28;20067;-83
2023/12/21 02:31:08;;;;;;;9.07;6.55;;;;;;;2.79;81.38;100520.28;5091939;28;20274;-83
2023/12/21 02:33:57;;;;;;;13.93;7.05;;;;;;;2.87;81.05;100524.28;5089814;28;20051;-83
2023/12/21 02:36:52;;;;;;;8.73;5.85;;;;;;;2.89;80.35;100527.53;5087174;28;20051;-83
2023/12/21 02:39:46;;;;;;;8.87;5.17;;;;;;;2.94;80.25;100530.19;5070481;28;20051;-83
2023/12/21 02:42:41;;;;;;;12.75;6.78;;;;;;;3.01;81.69;100520.78;5068226;28;20044;-83
2023/12/21 02:45:36;;;;;;;9.82;5.10;;;;;;;3.10;82.79;100514.88;5065303;28;20048;-83
2023/12/21 02:48:30;;;;;;;16.33;6.10;;;;;;;3.29;81.35;100507.84;5068667;28;20048;-83
2023/12/21 02:51:22;;;;;;;6.07;3.45;;;;;;;3.29;80.57;100505.97;5065928;28;20517;-83
2023/12/21 02:54:17;;;;;;;14.18;6.32;;;;;;;3.24;79.59;100511.38;5067808;28;20048;-82
2023/12/21 02:57:12;;;;;;;9.35;4.38;;;;;;;3.21;79.86;100514.56;5068073;28;20060;-82
2023/12/21 03:00:06;;;;;;;9.35;5.55;;;;;;;3.17;79.75;100521.56;5065741;28;20039;-82
2023/12/21 03:03:01;;;;;;;10.25;5.65;;;;;;;3.13;79.21;100517.81;5070598;28;20047;-82
2023/12/21 03:06:00;;;;;;;7.53;4.30;;;;;;;3.11;77.78;100517.28;5067914;28;20047;-82
2023/12/21 03:08:53;;;;;;;15.13;7.30;;;;;;;3.11;79.71;100508.41;5070011;28;20047;-82
2023/12/21 03:11:47;;;;;;;9.83;4.87;;;;;;;3.14;81.02;100513.25;5068985;28;20052;-82
2023/12/21 03:14:37;;;;;;;12.93;5.72;;;;;;;2.84;80.03;100514.09;5066464;28;20047;-83
2023/12/21 03:17:29;;;;;;;10.57;5.68;;;;;;;2.96;80.34;100517.28;5070073;28;20048;-83
2023/12/21 03:20:21;;;;;;;14.48;6.18;;;;;;;2.86;81.66;100525.34;5066070;28;20040;-83
2023/12/21 03:23:14;;;;;;;12.88;6.43;;;;;;;2.96;80.92;100531.53;5070610;28;20087;-82
2023/12/21 03:26:03;;;;;;;11.77;6.38;;;;;;;2.84;80.77;100532.88;5067492;28;20040;-83
2023/12/21 03:28:58;;;;;;;16.00;7.68;;;;;;;2.76;80.93;100525.34;5065433;28;20044;-83
2023/12/21 03:31:50;;;;;;;12.00;5.97;;;;;;;2.74;81.82;100525.63;5070851;28;20043;-83
2023/12/21 03:34:45;;;;;;;8.27;5.07;;;;;;;2.76;81.89;100526.16;5068439;28;20052;-81
2023/12/21 03:37:39;;;;;;;12.82;6.30;;;;;;;2.68;83.82;100520.53;5083881;28;20075;-83
2023/12/21 03:40:32;;;;;;;10.57;5.50;;;;;;;2.71;83.06;100522.66;5087512;28;20524;-82
2023/12/21 03:43:24;;;;;;;14.77;7.60;;;;;;;2.82;84.38;100514.34;5084924;28;20048;-83
2023/12/21 03:46:19;;;;;;;14.68;7.43;;;;;;;2.91;85.78;100517.28;5091809;28;20044;-83
2023/12/21 03:49:14;;;;;;;15.20;7.00;;;;;;;2.91;86.05;100512.72;5073660;28;20051;-83
2023/12/21 03:52:09;;;;;;;13.97;7.00;;;;;;;2.91;86.78;100504.69;5085673;28;20044;-83
2023/12/21 03:55:03;;;;;;;15.57;8.48;;;;;;;2.99;86.46;100506.03;5087848;28;20039;-82
2023/12/21 03:57:56;;;;;;;14.88;8.77;;;;;;;2.91;86.05;100501.19;5089022;28;20535;-82
2023/12/21 04:00:43;;;;;;;25.67;10.77;;;;;;;2.88;85.75;100491.00;5092499;28;20427;-82
2023/12/21 04:03:38;;;;;;;15.82;7.80;;;;;;;2.87;84.58;100505.50;5091220;28;20044;-82
2023/12/21 04:06:32;;;;;;;20.17;8.60;;;;;;;2.85;84.29;100511.13;5087624;28;20078;-82
2023/12/21 04:09:27;;;;;;;11.98;6.22;;;;;;;2.88;83.72;100501.72;5092301;28;20409;-82
2023/12/21 04:12:21;;;;;;;18.85;9.85;;;;;;;2.80;82.40;100494.19;5088366;28;20055;-82
2023/12/21 04:15:15;;;;;;;12.90;6.57;;;;;;;2.78;81.13;100485.63;5088024;28;20047;-82
2023/12/21 04:18:10;;;;;;;18.83;8.57;;;;;;;2.86;82.17;100496.63;5090223;28;20854;-82
2023/12/21 04:21:05;;;;;;;12.47;6.83;;;;;;;2.66;82.59;100485.06;5087524;28;20038;-81
2023/12/21 04:23:57;;;;;;;16.30;9.15;;;;;;;2.73;84.02;100488.31;5091599;28;20051;-82
2023/12/21 04:26:51;;;;;;;26.10;12.05;;;;;;;2.82;84.00;100484.00;5089856;28;20055;-82
2023/12/21 04:29:46;;;;;;;14.68;7.28;;;;;;;2.91;83.81;100488.56;5087206;28;20043;-81
2023/12/21 04:32:41;;;;;;;19.23;7.70;;;;;;;2.73;83.33;100477.56;5091505;28;20066;-81
2023/12/21 04:35:35;;;;;;;21.42;9.60;;;;;;;2.96;83.17;100472.44;5088827;28;20043;-82
2023/12/21 04:38:30;;;;;;;12.32;6.85;;;;;;;3.02;82.63;100459.81;5092006;28;20058;-82
2023/12/21 04:41:22;;;;;;;11.73;6.68;;;;;;;3.09;82.70;100456.84;5089250;28;20429;-81
2023/12/21 04:44:14;;;;;;;16.42;8.77;;;;;;;3.16;83.60;100452.78;5087817;28;20051;-82
2023/12/21 04:47:08;;;;;;;15.20;8.13;;;;;;;3.01;81.28;100447.47;5091051;28;20051;-82
2023/12/21 04:49:59;;;;;;;20.45;9.65;;;;;;;2.66;82.44;100452.88;5088675;28;20095;-82
2023/12/21 04:52:54;;;;;;;16.80;8.65;;;;;;;2.61;82.95;100452.88;5096410;28;20047;-81
2023/12/21 04:55:48;;;;;;;12.20;7.15;;;;;;;2.69;82.24;100446.97;5094554;28;20051;-82
2023/12/21 04:58:43;;;;;;;10.40;6.47;;;;;;;2.53;82.55;100454.22;5092229;28;20039;-82
2023/12/21 05:01:37;;;;;;;17.38;9.57;;;;;;;2.49;83.32;100451.25;5095494;28;20050;-82
2023/12/21 05:04:32;;;;;;;12.63;6.77;;;;;;;2.54;84.36;100447.75;5092688;28;20054;-82
2023/12/21 05:07:27;;;;;;;20.08;9.05;;;;;;;2.54;85.23;100453.13;5095856;28;20046;-82
2023/12/21 05:10:16;;;;;;;18.25;9.43;;;;;;;2.54;84.89;100450.44;5093812;28;20047;-83
2023/12/21 05:13:11;;;;;;;18.05;9.32;;;;;;;2.11;84.08;100449.09;5091903;28;20046;-82
2023/12/21 05:16:03;;;;;;;15.80;8.48;;;;;;;2.41;84.67;100448.31;5095976;28;20035;-82
2023/12/21 05:18:57;;;;;;;25.63;9.07;;;;;;;2.42;83.83;100441.88;5092725;28;20055;-82
2023/12/21 05:21:52;;;;;;;15.00;6.53;;;;;;;2.63;82.64;100440.81;5088777;28;20060;-81
2023/12/21 05:24:45;;;;;;;16.83;7.00;;;;;;;2.74;81.06;100455.03;5085817;28;20366;-82
2023/12/21 05:27:32;;;;;;;19.50;9.27;;;;;;;2.64;81.37;100465.78;5089891;28;20282;-82
2023/12/21 05:30:27;;;;;;;17.88;7.93;;;;;;;2.45;80.02;100460.91;5093562;28;20051;-82
2023/12/21 05:33:21;;;;;;;15.48;8.80;;;;;;;2.38;81.15;100446.19;5091214;28;20051;-82
2023/12/21 05:36:22;;;;;;;12.00;6.78;;;;;;;2.25;80.71;100454.72;5090380;28;20055;-80
2023/12/21 05:39:18;;;;;;;13.10;6.72;;;;;;;2.14;80.34;100459.28;5090724;28;20040;-82
2023/12/21 05:42:10;;;;;;;;;;;;;;;2.17;80.58;100457.94;5091505;28;20466;-83
2023/12/21 05:45:02;;;;;;;18.30;8.20;;;;;;;2.10;81.38;100455.50;5087048;28;19917;-83
2023/12/21 05:47:58;;;;;;;19.17;8.43;;;;;;;1.49;83.15;100458.00;5089751;28;20044;-82
2023/12/21 05:50:53;;;;;;;;;;;;;;;1.00;85.49;100456.69;5086477;28;20232;-83
2023/12/21 05:53:48;;;;;;;16.55;7.75;;;;;;;1.36;87.58;100453.13;5091743;28;19900;-83
2023/12/21 05:56:42;;;;;;;17.83;8.68;;;;;;;1.54;86.22;100450.00;5079747;28;20052;-83
2023/12/21 05:59:37;;;;;;;12.57;7.23;;;;;;;1.73;86.19;100441.50;5089984;28;20071;-83
2023/12/21 06:02:31;;;;;;;17.70;8.88;;;;;;;2.00;85.17;100440.22;5090438;28;20286;-82
2023/12/21 06:05:24;;;;;;;17.93;8.77;;;;;;;2.15;83.31;100445.59;5089749;28;20043;-83
2023/12/21 06:08:16;;;;;;;17.55;10.32;;;;;;;2.01;82.64;100459.78;5093365;28;20269;-83
2023/12/21 06:11:08;;;;;;;20.38;9.00;;;;;;;2.12;81.00;100456.88;5083033;28;21781;-82
2023/12/21 06:14:00;;;;;;;17.50;9.32;;;;;;;2.07;81.71;100459.53;5085995;28;20044;-82
2023/12/21 06:16:55;;;;;;;18.75;8.57;;;;;;;2.10;81.94;100458.19;5084908;28;20319;-82
2023/12/21 06:19:50;;;;;;;17.38;7.90;;;;;;;2.17;81.54;100461.44;5088733;28;20048;-81
2023/12/21 06:22:42;;;;;;;43.88;23.15;;;;;;;2.04;80.15;100453.88;5088849;28;20429;-81
2023/12/21 06:25:36;;;;;;;21.55;11.75;;;;;;;2.09;79.28;100456.56;5088511;28;20052;-82
2023/12/21 06:28:31;;;;;;;14.97;9.00;;;;;;;1.89;81.84;100453.84;5084258;28;20047;-82
2023/12/21 06:31:26;;;;;;;22.42;9.43;;;;;;;2.03;81.23;100444.25;5087321;28;20048;-80
2023/12/21 06:34:20;;;;;;;28.17;12.05;;;;;;;1.90;81.04;100445.56;5087598;28;20048;-81
2023/12/21 06:37:10;;;;;;;35.10;17.27;;;;;;;1.87;82.96;100458.69;5071633;28;20045;-80
2023/12/21 06:40:04;;;;;;;34.25;13.25;;;;;;;2.07;82.52;100464.91;5069629;28;20044;-81
2023/12/21 06:43:04;;;;;;;28.90;11.02;;;;;;;2.14;81.62;100467.31;5066396;28;20041;-81
2023/12/21 06:45:57;;;;;;;31.80;13.05;;;;;;;1.99;81.44;100461.91;5068451;28;20048;-80
2023/12/21 06:48:51;;;;;;;34.70;16.45;;;;;;;1.99;82.97;100468.09;5065090;28;20044;-80
2023/12/21 06:51:46;;;;;;;19.00;12.33;;;;;;;1.93;83.96;100461.09;5069111;28;20051;-81
2023/12/21 06:54:41;;;;;;;29.50;10.27;;;;;;;1.89;83.73;100461.91;5066637;28;20464;-80
2023/12/21 06:57:35;;;;;;;32.70;8.32;;;;;;;1.88;84.27;100461.09;5062765;28;20059;-81
2023/12/21 07:00:27;;;;;;;31.55;10.52;;;;;;;2.03;84.37;100471.06;5069672;28;20051;-81
2023/12/21 07:03:22;;;;;;;17.92;8.75;;;;;;;2.12;82.73;100478.34;5068543;28;20426;-82
2023/12/21 07:06:12;;;;;;;16.58;6.20;;;;;;;2.34;80.37;100486.13;5084473;28;20040;-80
2023/12/21 07:09:01;;;;;;;18.17;8.05;;;;;;;2.40;78.99;100479.69;5086628;28;20067;-80
2023/12/21 07:11:55;;;;;;;27.85;8.80;;;;;;;2.38;79.65;100481.88;5085542;28;20047;-81
2023/12/21 07:14:48;;;;;;;20.40;9.07;;;;;;;1.52;79.91;100476.25;5086838;28;20047;-81
2023/12/21 07:17:47;;;;;;;17.50;7.63;;;;;;;1.46;83.26;100482.66;5081647;28;20095;-79
2023/12/21 07:20:42;;;;;;;21.52;8.80;;;;;;;1.68;83.21;100488.63;5068814;28;20056;-80
2023/12/21 07:23:37;;;;;;;13.38;7.07;;;;;;;1.61;80.97;100476.56;5070578;28;20535;-80
2023/12/21 07:26:32;;;;;;;20.70;9.45;;;;;;;1.55;82.46;100466.88;5064560;28;20048;-80
2023/12/21 07:29:26;;;;;;;28.50;9.45;;;;;;;1.35;83.45;100453.38;5075925;28;20122;-80
2023/12/21 07:32:21;;;;;;;28.98;9.30;;;;;;;0.86;85.03;100461.69;5066868;28;20060;-79
2023/12/21 07:35:13;;;;;;;16.00;8.35;;;;;;;1.25;86.97;100454.16;5075665;28;20437;-81
2023/12/21 07:38:08;;;;;;;14.90;6.30;;;;;;;1.51;86.23;100449.72;5086804;28;20043;-82
2023/12/21 07:41:01;;;;;;;17.50;8.32;;;;;;;1.28;84.88;100441.03;5080510;28;20516;-81
2023/12/21 07:43:55;;;;;;;22.70;10.43;;;;;;;1.28;85.04;100445.56;5083366;28;20051;-81
2023/12/21 07:46:49;;;;;;;19.02;10.60;;;;;;;1.66;85.91;100453.25;5081296;28;20040;-82
2023/12/21 07:49:44;;;;;;;14.38;8.02;;;;;;;2.10;84.36;100450.16;5079473;28;20040;-81
2023/12/21 07:52:36;;;;;;;23.05;9.57;;;;;;;2.20;82.90;100460.91;5084387;28;20048;-81
2023/12/21 07:55:32;;;;;;;24.92;10.68;;;;;;;2.27;82.82;100460.66;5079078;28;20055;-82
2023/12/21 07:58:27;;;;;;;18.43;7.80;;;;;;;2.31;82.18;100445.63;5064441;28;20529;-80
2023/12/21 08:01:21;;;;;;;22.83;7.88;;;;;;;2.31;81.23;100456.34;5056180;28;20040;-81
2023/12/21 08:04:16;;;;;;;24.50;11.20;;;;;;;2.07;81.15;100450.69;5053555;28;20051;-80
2023/12/21 08:07:10;;;;;;;27.08;13.93;;;;;;;2.46;81.36;100446.44;5057677;28;20413;-81
2023/12/21 08:10:05;;;;;;;29.63;13.48;;;;;;;2.78;79.19;100440.00;5055530;28;20040;-81
2023/12/21 08:13:00;;;;;;;26.23;12.00;;;;;;;2.96;77.63;100439.41;5058796;28;20063;-80
2023/12/21 08:15:54;;;;;;;22.13;9.53;;;;;;;2.99;79.10;100447.75;5057053;28;20037;-80
2023/12/21 08:18:46;;;;;;;28.67;12.95;;;;;;;3.05;79.41;100427.03;5053834;28;20047;-80
2023/12/21 08:21:41;;;;;;;18.80;11.43;;;;;;;3.19;80.45;100433.47;5061555;28;20052;-81
2023/12/21 08:24:35;;;;;;;23.77;12.93;;;;;;;2.65;82.59;100427.09;5059318;28;20045;-79
2023/12/21 08:27:30;;;;;;;27.55;11.63;;;;;;;2.90;81.91;100435.13;5065787;28;20520;-80
2023/12/21 08:30:28;;;;;;;22.02;11.43;;;;;;;2.87;82.35;100424.94;5061968;28;20052;-81
2023/12/21 08:33:20;;;;;;;23.05;11.15;;;;;;;2.90;82.01;100419.00;5058938;28;20033;-81
2023/12/21 08:36:14;;;;;;;37.33;13.23;;;;;;;3.24;81.15;100416.53;5073072;28;20036;-80
2023/12/21 08:39:06;;;;;;;30.48;13.05;;;;;;;3.65;78.95;100417.16;5077556;28;20037;-81
2023/12/21 08:42:01;;;;;;;27.63;13.77;;;;;;;4.31;76.07;100428.31;5082356;28;20044;-80
2023/12/21 08:44:55;;;;;;;21.70;12.07;;;;;;;4.53;75.51;100442.13;5078383;28;20040;-80
2023/12/21 08:47:50;;;;;;;19.15;11.43;;;;;;;5.03;75.05;100440.84;5077545;28;20417;-80
2023/12/21 08:50:45;;;;;;;21.00;10.57;;;;;;;5.58;74.00;100428.66;5080992;28;20048;-80
2023/12/21 08:53:39;;;;;;;19.85;10.27;;;;;;;5.91;72.60;100408.00;5078818;28;20271;-80
2023/12/21 08:56:33;;;;;;;27.27;10.32;;;;;;;6.34;70.00;100407.91;5082485;28;20055;-80
2023/12/21 08:59:30;;;;;;;21.13;10.57;;;;;;;6.71;70.63;100399.72;5079854;28;20055;-80
2023/12/21 09:02:25;;;;;;;24.33;8.33;;;;;;;7.07;70.38;100399.84;5077634;28;20032;-81
2023/12/21 09:05:20;;;;;;;15.80;7.10;;;;;;;7.62;69.30;100395.22;5077589;28;20043;-81
2023/12/21 09:08:09;;;;;;;13.50;5.63;;;;;;;8.12;68.45;100389.81;5079565;28;20056;-81
2023/12/21 09:11:04;;;;;;;14.57;7.80;;;;;;;8.39;67.66;100397.03;5077670;28;20544;-81
2023/12/21 09:13:56;;;;;;;9.20;5.77;;;;;;;8.49;67.11;100400.28;5081064;28;20051;-81
2023/12/21 09:16:51;;;;;;;10.45;6.32;;;;;;;8.84;66.20;100403.19;5078854;28;20270;-82
2023/12/21 09:19:45;;;;;;;12.10;5.45;;;;;;;9.20;64.86;100398.44;5081684;28;20047;-81
2023/12/21 09:22:40;;;;;;;12.43;5.70;;;;;;;9.66;64.27;100389.78;5079617;28;20051;-81
2023/12/21 09:25:34;;;;;;;14.47;6.70;;;;;;;10.07;62.16;100383.09;5078144;28;20059;-81
2023/12/21 09:28:29;;;;;;;14.60;6.63;;;;;;;10.26;61.10;100381.69;5081137;28;20040;-81
2023/12/21 09:31:21;;;;;;;15.60;6.35;;;;;;;10.55;60.07;100378.31;5078746;28;20114;-81
2023/12/21 09:34:17;;;;;;;13.43;6.03;;;;;;;10.66;58.73;100365.97;5080502;28;20051;-81
2023/12/21 09:37:09;;;;;;;;;;;;;;;10.79;59.22;100366.06;5079887;28;20032;-81
2023/12/21 09:40:03;;;;;;;21.85;8.25;;;;;;;10.60;59.16;100361.03;5062311;28;19912;-81
2023/12/21 09:42:59;;;;;;;26.42;9.15;;;;;;;10.78;58.59;100348.97;5081488;28;20032;-81
2023/12/21 09:45:56;;;;;;;19.88;10.40;;;;;;;8.70;64.00;100351.78;5078361;28;20532;-81
2023/12/21 09:48:49;;;;;;;20.65;12.63;;;;;;;8.42;66.52;100340.34;5081713;28;20059;-81
2023/12/21 09:51:43;;;;;;;24.00;13.52;;;;;;;7.96;68.47;100337.13;5079340;28;20040;-81
2023/12/21 09:54:40;;;;;;;22.45;10.48;;;;;;;7.66;69.47;100344.81;5078347;28;20033;-81
2023/12/21 09:57:32;;;;;;;30.08;13.32;;;;;;;7.85;68.74;100335.75;5080354;28;20036;-82
2023/12/21 10:00:24;;;;;;;27.60;14.55;;;;;;;8.46;66.41;100329.66;5067682;28;20063;-81
2023/12/21 10:03:18;;;;;;;26.55;14.93;;;;;;;8.64;65.91;100327.84;5081782;28;20048;-81
2023/12/21 10:06:13;;;;;;;34.47;15.00;;;;;;;9.22;63.48;100320.25;5079541;28;20044;-81
2023/12/21 10:09:08;;;;;;;28.27;14.25;;;;;;;8.85;64.18;100337.03;5076610;28;20047;-81
2023/12/21 10:12:02;;;;;;;30.87;14.67;;;;;;;8.89;64.34;100324.44;5080616;28;20045;-81
2023/12/21 10:15:03;;;;;;;22.83;11.00;;;;;;;8.92;65.15;100321.13;5077322;28;20043;-81
2023/12/21 10:17:59;;;;;;;31.83;14.27;;;;;;;9.97;62.42;100310.09;5081748;28;20035;-81
2023/12/21 10:20:53;;;;;;;24.98;14.40;;;;;;;10.27;61.57;100300.97;5078784;28;20036;-81
2023/12/21 10:23:48;;;;;;;18.40;11.30;;;;;;;10.12;61.60;100291.38;5076439;28;20041;-81
2023/12/21 10:26:50;;;;;;;18.38;10.82;;;;;;;9.07;66.21;100280.00;5079801;28;20412;-81
2023/12/21 10:29:50;;;;;;;22.02;12.43;;;;;;;8.45;69.25;100269.25;5076744;28;20041;-81
2023/12/21 10:32:43;;;;;;;26.45;14.25;;;;;;;8.37;70.63;100266.50;5080139;28;20509;-81
2023/12/21 10:35:36;;;;;;;31.90;14.65;;;;;;;8.05;72.35;100254.03;5062484;28;20044;-81
2023/12/21 10:38:31;;;;;;;28.23;14.70;;;;;;;7.74;73.60;100249.38;5075226;28;20043;-81
2023/12/21 10:41:26;;;;;;;30.73;14.25;;;;;;;7.74;74.68;100248.56;5077972;28;20044;-81
2023/12/21 10:44:21;;;;;;;18.43;10.77;;;;;;;8.11;73.96;100239.25;5076792;28;20044;-81
2023/12/21 10:47:14;;;;;;;25.58;14.43;;;;;;;8.41;72.96;100238.47;5079609;28;20051;-81
2023/12/21 10:50:08;;;;;;;26.20;14.00;;;;;;;8.73;72.31;100229.22;5077478;28;20398;-81
2023/12/21 10:53:01;;;;;;;9.68;5.28;;;;;;;9.08;65.17;100213.00;5074907;28;20060;-81
2023/12/21 10:55:59;;;;;;;11.73;5.28;;;;;;;9.31;61.54;100214.44;5079082;28;20071;-81
2023/12/21 10:58:54;;;;;;;7.68;4.97;;;;;;;9.47;60.85;100209.34;5077316;28;20068;-81
2023/12/21 11:01:49;;;;;;;9.82;3.70;;;;;;;9.34;61.60;100202.97;5080208;28;20064;-81
2023/12/21 11:04:43;;;;;;;10.10;3.30;;;;;;;9.33;62.47;100185.09;5077447;28;20085;-81
2023/12/21 11:07:38;;;;;;;25.58;13.23;;;;;;;8.23;71.19;100195.34;5075187;28;20418;-81
2023/12/21 11:10:32;;;;;;;26.40;14.17;;;;;;;8.17;72.63;100181.16;5081048;28;20505;-80
2023/12/21 11:13:26;;;;;;;28.20;14.05;;;;;;;8.14;73.10;100176.34;5079979;28;20146;-81
2023/12/21 11:16:22;;;;;;;25.05;13.80;;;;;;;8.07;73.92;100165.97;5083979;28;20036;-81
2023/12/21 11:19:16;;;;;;;;;;;;;;;8.38;72.73;100155.09;5081394;28;20043;-81
2023/12/21 11:22:10;;;;;;;20.80;12.73;;;;;;;8.49;72.07;100145.59;5077447;28;19913;-81
2023/12/21 11:25:12;;;;;;;28.63;15.93;;;;;;;8.46;72.44;100138.09;5076599;28;20043;-81
2023/12/21 11:28:10;;;;;;;28.70;15.00;;;;;;;8.62;71.38;100134.94;5077371;28;20033;-81
2023/12/21 11:31:10;;;;;;;24.75;15.85;;;;;;;8.50;71.75;100138.25;5080546;28;20048;-81
2023/12/21 11:34:26;;;;;;;29.63;15.85;;;;;;;9.03;70.97;100127.19;5078311;28;20032;-82
2023/12/21 11:37:39;;;;;;;23.08;13.07;;;;;;;9.49;69.02;100117.56;5080007;28;20048;-81
2023/12/21 11:40:35;;;;;;;15.20;9.20;;;;;;;10.24;65.80;100098.63;5076786;28;20051;-81
2023/12/21 11:43:33;;;;;;;17.63;11.85;;;;;;;10.26;64.98;100112.66;5080223;28;20047;-81
2023/12/21 11:46:27;;;;;;;19.75;11.73;;;;;;;9.99;64.25;100099.50;5077797;28;20351;-81
2023/12/21 11:49:27;;;;;;;16.07;9.90;;;;;;;9.64;65.33;100101.56;5068638;28;20051;-81
2023/12/21 11:52:26;;;;;;;16.38;10.35;;;;;;;9.70;66.12;100102.19;5069594;28;20075;-81
2023/12/21 11:55:31;;;;;;;10.40;6.35;;;;;;;9.87;63.86;100096.69;5067114;28;20048;-81
2023/12/21 11:58:26;;;;;;;10.48;5.93;;;;;;;10.13;61.44;100080.28;5078415;28;20497;-81
2023/12/21 12:01:29;;;;;;;13.98;6.95;;;;;;;10.83;59.11;100073.28;5080053;28;20055;-81
2023/12/21 12:04:21;;;;;;;14.73;8.38;;;;;;;11.55;57.65;100067.31;5081766;28;20056;-81
2023/12/21 12:07:20;;;;;;;10.60;6.97;;;;;;;13.07;54.54;100055.69;5081125;28;20040;-81
2023/12/21 12:10:12;;;;;;;19.38;10.45;;;;;;;15.55;47.81;100060.69;5082375;28;20045;-81
2023/12/21 12:13:07;;;;;;;22.98;10.05;;;;;;;18.01;41.25;100049.81;5082091;28;20040;-81
2023/12/21 12:16:01;;;;;;;18.27;9.82;;;;;;;18.07;40.50;100051.84;5080081;28;20032;-81
2023/12/21 12:18:54;;;;;;;18.05;10.68;;;;;;;16.82;42.00;100057.19;5083893;28;20063;-81
2023/12/21 12:21:51;;;;;;;20.83;10.23;;;;;;;15.31;45.06;100059.84;5080985;28;20045;-82
2023/12/21 12:24:46;;;;;;;17.40;10.20;;;;;;;14.79;46.24;100054.09;5078896;28;20040;-81
2023/12/21 12:27:34;;;;;;;14.60;7.83;;;;;;;14.17;47.99;100035.91;5082600;28;20045;-81
2023/12/21 12:30:26;;;;;;;15.20;9.93;;;;;;;14.47;48.13;100040.53;5079647;28;20048;-81
2023/12/21 12:33:23;;;;;;;16.92;9.27;;;;;;;14.31;48.42;100042.47;5083608;28;20405;-82
2023/12/21 12:36:13;;;;;;;16.13;8.30;;;;;;;14.55;47.33;100033.25;5080993;28;20037;-81
2023/12/21 12:39:05;;;;;;;20.13;10.30;;;;;;;15.04;46.15;100036.22;5078519;28;20063;-81
2023/12/21 12:41:58;;;;;;;16.70;11.65;;;;;;;16.12;43.99;100035.78;5082332;28;20036;-82
2023/12/21 12:44:56;;;;;;;19.55;10.82;;;;;;;16.92;41.58;100022.78;5079800;28;20036;-81
2023/12/21 12:47:50;;;;;;;20.58;10.85;;;;;;;16.39;42.18;100022.88;5083657;28;20036;-81
2023/12/21 12:50:45;;;;;;;22.52;10.90;;;;;;;14.88;45.52;100010.88;5081531;28;20048;-81
2023/12/21 12:53:37;;;;;;;17.70;10.43;;;;;;;14.05;47.16;100002.03;5078963;28;20041;-81
2023/12/21 12:56:31;;;;;;;20.10;10.63;;;;;;;15.20;46.18;99986.84;5082248;28;20044;-81
2023/12/21 12:59:26;;;;;;;16.27;10.30;;;;;;;16.88;41.28;99967.81;5079025;28;20048;-81
2023/12/21 13:02:21;;;;;;;12.93;8.63;;;;;;;16.24;42.44;99961.53;5084090;28;20049;-81
2023/12/21 13:05:16;;;;;;;14.20;10.73;;;;;;;15.71;43.38;99959.94;5079076;28;20297;-82
2023/12/21 13:08:08;;;;;;;18.10;9.43;;;;;;;16.97;40.50;99949.06;5078933;28;20497;-81
2023/12/21 13:11:01;;;;;;;17.00;10.60;;;;;;;16.61;40.73;99941.59;5077612;28;20048;-81
2023/12/21 13:13:55;;;;;;;18.17;10.33;;;;;;;17.25;39.03;99932.09;5081097;28;20048;-82
2023/12/21 13:16:45;;;;;;;15.75;10.93;;;;;;;18.59;36.88;99934.19;5077099;28;20041;-81
2023/12/21 13:19:39;;;;;;;20.65;12.43;;;;;;;17.94;37.98;99915.72;5080632;28;20040;-81
2023/12/21 13:22:32;;;;;;;23.42;12.10;;;;;;;17.48;37.85;99896.94;5079094;28;20059;-81
2023/12/21 13:25:27;;;;;;;17.27;10.35;;;;;;;16.50;41.07;99872.06;5082559;28;20047;-82
2023/12/21 13:28:17;;;;;;;19.58;12.40;;;;;;;15.09;42.77;99887.25;5080151;28;20040;-82